Time;durP1;ratioP1;P1;durP2;ratioP2;P2;SDS_P1;SDS_P2;PMS_P1;PMS_P2;Temp;Humidity;BMP_temperature;BMP_pressure;BME280_temperature;BME280_humidity;BME280_pressure;Samples;Min_cycle;Max_cycle;Signal;HPM_P1;HPM_P2
2023/12/26 00:00:32;;;;;;;0.63;0.50;;;11.90;99.90;;;;;;5049932;28;20139;-35
2023/12/26 00:02:58;;;;;;;0.38;0.38;;;11.90;99.90;;;;;;5059049;28;20024;-35
2023/12/26 00:05:23;;;;;;;0.47;0.47;;;11.90;99.90;;;;;;5058541;28;20032;-35
2023/12/26 00:07:49;;;;;;;1.70;0.52;;;11.80;99.90;;;;;;5059205;28;20032;-36
2023/12/26 00:10:15;;;;;;;0.60;0.40;;;11.80;99.90;;;;;;5059191;28;20043;-37
2023/12/26 00:12:42;;;;;;;0.43;0.43;;;11.80;99.90;;;;;;5061045;28;20384;-36
2023/12/26 00:15:09;;;;;;;1.17;0.52;;;11.80;99.90;;;;;;5062615;28;20035;-36
2023/12/26 00:17:35;;;;;;;0.65;0.63;;;11.80;99.90;;;;;;5062744;28;20138;-35
2023/12/26 00:20:00;;;;;;;0.82;0.57;;;11.80;99.90;;;;;;5061882;28;20025;-35
2023/12/26 00:22:26;;;;;;;0.82;0.50;;;11.80;99.90;;;;;;5061500;28;20131;-35
2023/12/26 00:24:52;;;;;;;0.73;0.45;;;11.70;99.90;;;;;;5062024;28;20047;-36
2023/12/26 00:27:18;;;;;;;0.82;0.50;;;11.70;99.90;;;;;;5061386;28;20677;-35
2023/12/26 00:29:44;;;;;;;0.63;0.50;;;11.70;99.90;;;;;;5061763;28;20833;-34
2023/12/26 00:32:10;;;;;;;0.65;0.50;;;11.70;99.90;;;;;;5061902;28;20033;-36
2023/12/26 00:34:35;;;;;;;0.82;0.50;;;11.70;99.90;;;;;;5061958;28;20596;-35
2023/12/26 00:37:01;;;;;;;1.20;0.65;;;11.70;99.90;;;;;;5061655;28;20048;-35
2023/12/26 00:39:27;;;;;;;1.25;0.60;;;11.70;99.90;;;;;;5062159;28;20028;-36
2023/12/26 00:41:53;;;;;;;1.00;0.50;;;11.70;99.90;;;;;;5061934;28;20044;-35
2023/12/26 00:44:19;;;;;;;0.50;0.45;;;11.70;99.90;;;;;;5060534;28;20064;-35
2023/12/26 00:46:48;;;;;;;0.50;0.50;;;11.70;99.90;;;;;;5063199;28;20059;-35
2023/12/26 00:49:13;;;;;;;0.60;0.40;;;11.70;99.90;;;;;;5061945;28;20035;-36
2023/12/26 00:51:39;;;;;;;0.50;0.40;;;11.60;99.90;;;;;;5061624;28;20044;-36
2023/12/26 00:54:05;;;;;;;0.63;0.50;;;11.70;99.90;;;;;;5062007;28;20574;-36
2023/12/26 00:56:33;;;;;;;0.38;0.38;;;11.60;99.90;;;;;;5062168;28;20028;-36
2023/12/26 00:58:59;;;;;;;0.40;0.38;;;11.60;99.90;;;;;;5061495;28;20024;-42
2023/12/26 01:01:25;;;;;;;1.92;0.60;;;11.60;99.90;;;;;;5061630;28;20036;-36
2023/12/26 01:03:50;;;;;;;0.73;0.40;;;11.60;99.90;;;;;;5061326;28;20566;-36
2023/12/26 01:06:16;;;;;;;0.95;0.30;;;11.60;99.90;;;;;;5061541;28;20371;-37
2023/12/26 01:08:42;;;;;;;1.10;0.60;;;11.60;99.90;;;;;;5061242;28;20051;-36
2023/12/26 01:11:10;;;;;;;1.15;0.50;;;11.60;99.90;;;;;;5060373;28;20035;-36
2023/12/26 01:13:36;;;;;;;0.98;0.68;;;11.60;99.90;;;;;;5061054;28;20028;-35
2023/12/26 01:16:05;;;;;;;0.85;0.60;;;11.60;99.90;;;;;;5061272;28;20089;-35
2023/12/26 01:18:31;;;;;;;1.05;0.60;;;11.50;99.90;;;;;;5060132;28;20544;-36
2023/12/26 01:20:57;;;;;;;0.60;0.60;;;11.60;99.90;;;;;;5059980;28;20036;-36
2023/12/26 01:23:23;;;;;;;1.55;0.93;;;11.60;99.90;;;;;;5059944;28;20035;-36
2023/12/26 01:25:49;;;;;;;2.20;1.02;;;11.50;99.90;;;;;;5056640;28;20055;-35
2023/12/26 01:28:15;;;;;;;3.17;1.10;;;11.50;99.90;;;;;;5060808;28;20017;-35
2023/12/26 01:30:41;;;;;;;1.20;0.80;;;11.50;99.90;;;;;;5061068;28;20633;-36
2023/12/26 01:33:08;;;;;;;3.05;1.20;;;11.60;99.90;;;;;;5060819;28;20523;-35
2023/12/26 01:35:33;;;;;;;1.17;0.80;;;11.50;99.90;;;;;;5061180;28;20032;-36
2023/12/26 01:37:59;;;;;;;1.83;0.88;;;11.60;99.90;;;;;;5058922;28;20721;-35
2023/12/26 01:40:25;;;;;;;1.95;0.98;;;11.50;99.90;;;;;;5060997;28;20017;-35
2023/12/26 01:42:51;;;;;;;1.13;0.70;;;11.50;99.90;;;;;;5061086;28;20055;-35
2023/12/26 01:45:17;;;;;;;1.83;0.80;;;11.50;99.90;;;;;;5059759;28;20020;-35
2023/12/26 01:47:45;;;;;;;1.52;0.80;;;11.60;99.90;;;;;;5060107;28;20059;-36
2023/12/26 01:50:13;;;;;;;1.00;0.60;;;11.50;99.90;;;;;;5060702;28;20673;-35
2023/12/26 01:52:40;;;;;;;2.40;0.90;;;11.50;99.90;;;;;;5060770;28;20024;-36
2023/12/26 01:55:11;;;;;;;1.27;0.60;;;11.50;99.90;;;;;;5059602;28;20121;-35
2023/12/26 01:57:39;;;;;;;1.63;0.60;;;11.50;99.90;;;;;;5060138;28;20035;-35
2023/12/26 02:00:06;;;;;;;1.83;0.80;;;11.50;99.90;;;;;;5060769;28;20294;-36
2023/12/26 02:02:33;;;;;;;1.25;0.75;;;11.50;99.90;;;;;;5060348;28;20024;-35
2023/12/26 02:05:00;;;;;;;1.20;0.90;;;11.50;99.90;;;;;;5060424;28;20398;-35
2023/12/26 02:07:26;;;;;;;0.90;0.70;;;11.60;99.90;;;;;;5059773;28;20140;-35
2023/12/26 02:09:52;;;;;;;2.38;0.95;;;11.60;99.90;;;;;;5060036;28;20029;-35
2023/12/26 02:12:18;;;;;;;1.55;1.05;;;11.60;99.90;;;;;;5057717;28;20042;-35
2023/12/26 02:14:45;;;;;;;2.30;1.00;;;11.60;99.90;;;;;;5061127;28;20363;-35
2023/12/26 02:17:23;;;;;;;3.03;1.02;;;11.60;99.90;;;;;;5060039;28;20035;-36
2023/12/26 02:19:48;;;;;;;1.33;1.02;;;11.60;99.90;;;;;;5059616;28;20024;-36
2023/12/26 02:22:14;;;;;;;1.85;0.90;;;11.60;99.90;;;;;;5059980;28;20016;-36
2023/12/26 02:24:43;;;;;;;1.05;0.77;;;11.60;99.90;;;;;;5058319;28;20093;-36
2023/12/26 02:27:14;;;;;;;2.42;0.90;;;11.60;99.90;;;;;;5059500;28;20051;-36
2023/12/26 02:29:42;;;;;;;2.83;0.82;;;11.60;99.90;;;;;;5059644;28;20025;-35
2023/12/26 02:32:09;;;;;;;1.30;0.70;;;11.60;99.90;;;;;;5059312;28;20033;-35
2023/12/26 02:34:35;;;;;;;0.90;0.70;;;11.60;99.90;;;;;;5059192;28;20031;-36
2023/12/26 02:37:01;;;;;;;0.80;0.70;;;11.60;99.90;;;;;;5059077;28;20039;-34
2023/12/26 02:39:27;;;;;;;1.40;0.82;;;11.60;99.90;;;;;;5058425;28;20024;-35
2023/12/26 02:41:53;;;;;;;1.08;0.90;;;11.60;99.90;;;;;;5059629;28;20040;-35
2023/12/26 02:44:18;;;;;;;2.13;0.80;;;11.60;99.90;;;;;;5059138;28;20051;-35
2023/12/26 02:46:45;;;;;;;1.00;0.80;;;11.60;99.90;;;;;;5059955;28;20032;-35
2023/12/26 02:49:11;;;;;;;2.17;1.10;;;11.60;99.90;;;;;;5060437;28;20027;-40
2023/12/26 02:51:37;;;;;;;3.85;1.20;;;11.60;99.90;;;;;;5057048;27;20040;-35
2023/12/26 02:54:03;;;;;;;2.00;1.10;;;11.60;99.90;;;;;;5059441;28;20051;-35
2023/12/26 02:56:31;;;;;;;2.90;1.20;;;11.60;99.90;;;;;;5057718;28;20604;-35
2023/12/26 02:58:56;;;;;;;3.50;1.10;;;11.60;99.90;;;;;;5058553;28;20025;-35
2023/12/26 03:01:22;;;;;;;4.00;1.15;;;11.60;99.90;;;;;;5059266;28;20035;-35
2023/12/26 03:03:47;;;;;;;3.22;1.10;;;11.60;99.90;;;;;;5060533;28;20028;-36
2023/12/26 03:06:13;;;;;;;4.22;1.20;;;11.60;99.90;;;;;;5058195;28;20032;-35
2023/12/26 03:08:39;;;;;;;3.88;1.17;;;11.60;99.90;;;;;;5059412;28;20091;-35
2023/12/26 03:11:04;;;;;;;3.10;1.00;;;11.60;99.90;;;;;;5059788;28;20036;-37
2023/12/26 03:13:30;;;;;;;5.40;1.20;;;11.60;99.90;;;;;;5059659;28;20020;-36
2023/12/26 03:15:56;;;;;;;6.97;1.63;;;11.60;99.90;;;;;;5059117;28;20036;-35
2023/12/26 03:18:21;;;;;;;3.22;1.25;;;11.60;99.90;;;;;;5058206;28;20024;-36
2023/12/26 03:20:47;;;;;;;6.22;1.55;;;11.60;99.90;;;;;;5057956;28;20050;-36
2023/12/26 03:23:12;;;;;;;3.78;1.10;;;11.60;99.90;;;;;;5059500;28;20021;-36
2023/12/26 03:25:38;;;;;;;7.97;1.40;;;11.60;99.90;;;;;;5058463;28;20363;-35
2023/12/26 03:28:06;;;;;;;3.72;1.35;;;11.60;99.90;;;;;;5058281;28;20059;-35
2023/12/26 03:30:32;;;;;;;3.95;1.27;;;11.60;99.90;;;;;;5058570;28;20656;-35
2023/12/26 03:32:57;;;;;;;4.57;1.20;;;11.50;99.90;;;;;;5056893;28;20059;-35
2023/12/26 03:35:23;;;;;;;3.90;1.20;;;11.60;99.90;;;;;;5058174;28;20634;-36
2023/12/26 03:37:49;;;;;;;5.03;0.90;;;11.50;99.90;;;;;;5058330;28;20021;-35
2023/12/26 03:40:16;;;;;;;3.78;1.20;;;11.50;99.90;;;;;;5058049;28;20036;-36
2023/12/26 03:42:42;;;;;;;5.18;1.20;;;11.60;99.90;;;;;;5058720;28;20150;-36
2023/12/26 03:45:08;;;;;;;3.08;1.30;;;11.50;99.90;;;;;;5059200;28;20028;-34
2023/12/26 03:47:34;;;;;;;5.13;1.10;;;11.40;99.90;;;;;;5059333;28;20028;-35
2023/12/26 03:50:00;;;;;;;4.30;1.20;;;11.40;99.90;;;;;;5063056;28;20043;-35
2023/12/26 03:52:26;;;;;;;5.50;1.00;;;11.40;99.90;;;;;;5062205;28;20036;-35
2023/12/26 03:54:53;;;;;;;5.53;1.23;;;11.40;99.90;;;;;;5061945;28;20458;-36
2023/12/26 03:57:18;;;;;;;5.13;1.30;;;11.40;99.90;;;;;;5062665;28;20036;-35
2023/12/26 03:59:44;;;;;;;6.85;1.50;;;11.40;99.90;;;;;;5062758;28;20734;-35
2023/12/26 04:02:16;;;;;;;4.15;1.15;;;11.40;99.90;;;;;;5062456;28;20070;-35
2023/12/26 04:04:42;;;;;;;4.47;1.30;;;11.40;99.90;;;;;;5060905;28;20977;-35
2023/12/26 04:07:08;;;;;;;7.15;1.30;;;11.40;99.90;;;;;;5062656;28;20028;-36
2023/12/26 04:09:33;;;;;;;6.13;1.50;;;11.40;99.90;;;;;;5059612;28;20875;-40
2023/12/26 04:11:59;;;;;;;3.80;1.10;;;11.40;99.90;;;;;;5061893;28;20044;-36
2023/12/26 04:14:25;;;;;;;7.65;1.42;;;11.30;99.90;;;;;;5061061;28;20052;-35
2023/12/26 04:16:50;;;;;;;3.60;1.27;;;11.30;99.90;;;;;;5061629;28;20033;-36
2023/12/26 04:19:16;;;;;;;5.10;1.40;;;11.20;99.90;;;;;;5062455;28;20690;-36
2023/12/26 04:21:42;;;;;;;4.90;1.10;;;11.20;99.90;;;;;;5062225;28;20025;-37
2023/12/26 04:24:07;;;;;;;7.03;1.02;;;11.10;99.90;;;;;;5060690;28;20526;-35
2023/12/26 04:26:36;;;;;;;4.60;0.90;;;11.10;99.90;;;;;;5061860;28;20403;-36
2023/12/26 04:29:02;;;;;;;4.22;0.98;;;11.00;99.90;;;;;;5061962;28;20028;-36
2023/12/26 04:31:28;;;;;;;7.95;1.80;;;11.00;99.90;;;;;;5062396;28;20153;-36
2023/12/26 04:33:53;;;;;;;3.03;1.05;;;10.90;99.90;;;;;;5062457;28;20051;-37
2023/12/26 04:36:19;;;;;;;3.03;1.10;;;10.90;99.90;;;;;;5061094;28;20819;-36
2023/12/26 04:38:44;;;;;;;5.45;1.60;;;10.90;99.90;;;;;;5062575;28;20145;-36
2023/12/26 04:41:11;;;;;;;4.50;0.93;;;10.80;99.90;;;;;;5062385;28;20483;-35
2023/12/26 04:43:37;;;;;;;4.20;1.00;;;10.70;99.90;;;;;;5061623;28;20028;-36
2023/12/26 04:46:03;;;;;;;2.08;0.80;;;10.70;99.90;;;;;;5062278;28;20094;-36
2023/12/26 04:48:29;;;;;;;2.65;0.80;;;10.60;99.90;;;;;;5062916;28;20091;-36
2023/12/26 04:50:54;;;;;;;4.03;1.15;;;10.50;99.90;;;;;;5060938;28;20093;-36
2023/12/26 04:53:20;;;;;;;4.30;0.80;;;10.50;99.90;;;;;;5061730;28;20136;-36
2023/12/26 04:55:46;;;;;;;4.30;1.02;;;10.50;99.90;;;;;;5061742;28;20088;-36
2023/12/26 04:58:11;;;;;;;4.65;0.90;;;10.50;99.90;;;;;;5065352;28;20111;-36
2023/12/26 05:00:37;;;;;;;3.13;1.00;;;10.40;99.90;;;;;;5061276;28;20032;-36
2023/12/26 05:03:03;;;;;;;2.83;0.88;;;10.40;99.90;;;;;;5061748;28;20709;-36
2023/12/26 05:05:32;;;;;;;2.83;0.85;;;10.40;99.90;;;;;;5061082;28;20029;-36
2023/12/26 05:07:57;;;;;;;2.78;0.82;;;10.40;99.90;;;;;;5062310;28;20047;-36
2023/12/26 05:10:23;;;;;;;5.10;1.30;;;10.30;99.90;;;;;;5060036;28;20036;-35
2023/12/26 05:12:51;;;;;;;4.25;1.10;;;10.30;99.90;;;;;;5058618;28;20035;-36
2023/12/26 05:15:16;;;;;;;4.13;1.10;;;10.30;99.90;;;;;;5062171;28;20794;-36
2023/12/26 05:17:42;;;;;;;5.15;1.02;;;10.30;99.90;;;;;;5061183;28;20210;-36
2023/12/26 05:20:08;;;;;;;5.55;1.17;;;10.30;99.90;;;;;;5060700;28;20080;-36
2023/12/26 05:22:34;;;;;;;3.10;0.80;;;10.20;99.90;;;;;;5061269;28;20024;-36
2023/12/26 05:25:00;;;;;;;5.50;1.30;;;10.30;99.90;;;;;;5061021;28;20467;-37
2023/12/26 05:27:28;;;;;;;5.18;1.20;;;10.30;99.90;;;;;;5060137;28;20028;-36
2023/12/26 05:29:54;;;;;;;6.25;1.23;;;10.20;99.90;;;;;;5060683;28;20036;-36
2023/12/26 05:32:19;;;;;;;5.28;1.20;;;10.20;99.90;;;;;;5059289;28;20055;-36
2023/12/26 05:34:45;;;;;;;5.10;1.27;;;10.20;99.90;;;;;;5061133;28;20016;-37
2023/12/26 05:37:11;;;;;;;8.88;1.40;;;10.20;99.90;;;;;;5060554;28;20152;-36
2023/12/26 05:39:38;;;;;;;5.07;1.08;;;10.20;99.90;;;;;;5060962;28;20029;-36
2023/12/26 05:42:03;;;;;;;5.07;1.42;;;10.20;99.90;;;;;;5061156;28;20050;-37
2023/12/26 05:44:29;;;;;;;3.80;1.08;;;10.20;99.90;;;;;;5061834;28;20773;-36
2023/12/26 05:46:55;;;;;;;1.73;0.90;;;10.20;99.90;;;;;;5060026;28;20101;-36
2023/12/26 05:49:20;;;;;;;5.03;1.10;;;10.20;99.90;;;;;;5060872;28;20025;-36
2023/12/26 05:51:46;;;;;;;4.88;1.00;;;10.10;99.90;;;;;;5060874;28;20450;-35
2023/12/26 05:54:14;;;;;;;2.97;0.85;;;10.10;99.90;;;;;;5060578;28;20048;-37
2023/12/26 05:56:42;;;;;;;5.13;1.10;;;10.10;99.90;;;;;;5060677;28;20031;-36
2023/12/26 05:59:08;;;;;;;6.13;1.60;;;10.00;99.90;;;;;;5061496;28;20021;-37
2023/12/26 06:01:34;;;;;;;3.60;1.00;;;9.90;99.90;;;;;;5058098;28;20032;-37
2023/12/26 06:04:00;;;;;;;4.68;1.40;;;9.90;99.90;;;;;;5060504;28;20024;-36
2023/12/26 06:06:25;;;;;;;2.95;0.88;;;9.80;99.90;;;;;;5060736;28;20610;-37
2023/12/26 06:08:51;;;;;;;7.68;1.33;;;9.80;99.90;;;;;;5059426;28;20791;-36
2023/12/26 06:11:17;;;;;;;5.13;1.33;;;9.80;99.90;;;;;;5059694;28;20098;-36
2023/12/26 06:13:42;;;;;;;4.63;1.10;;;9.70;99.90;;;;;;5060479;28;20016;-37
2023/12/26 06:16:08;;;;;;;5.93;1.00;;;9.70;99.90;;;;;;5058817;28;20567;-36
2023/12/26 06:18:34;;;;;;;6.43;1.08;;;9.70;99.90;;;;;;5059829;28;20123;-36
2023/12/26 06:21:03;;;;;;;5.13;1.20;;;9.60;99.90;;;;;;5060157;28;20112;-37
2023/12/26 06:23:31;;;;;;;8.40;1.15;;;9.60;99.90;;;;;;5060283;28;20025;-36
2023/12/26 06:25:56;;;;;;;7.00;1.20;;;9.60;99.90;;;;;;5060581;28;20032;-36
2023/12/26 06:28:22;;;;;;;4.53;1.00;;;9.50;99.90;;;;;;5060660;28;20098;-36
2023/12/26 06:30:51;;;;;;;5.22;1.13;;;9.50;99.90;;;;;;5058173;28;20044;-35
2023/12/26 06:33:17;;;;;;;5.45;1.30;;;9.50;99.90;;;;;;5058217;28;20031;-35
2023/12/26 06:35:42;;;;;;;11.60;1.00;;;9.50;99.90;;;;;;5054340;28;20590;-36
2023/12/26 06:38:12;;;;;;;5.47;0.93;;;9.50;99.90;;;;;;5059663;28;20025;-36
2023/12/26 06:40:41;;;;;;;4.15;0.98;;;9.50;99.90;;;;;;5052421;28;20051;-36
2023/12/26 06:43:09;;;;;;;6.80;1.30;;;9.50;99.90;;;;;;5059576;28;20024;-36
2023/12/26 06:45:36;;;;;;;6.70;1.08;;;9.40;99.90;;;;;;5059136;28;20036;-37
2023/12/26 06:48:01;;;;;;;6.10;1.23;;;9.40;99.90;;;;;;5059590;28;20040;-37
2023/12/26 06:50:27;;;;;;;5.65;1.40;;;9.40;99.90;;;;;;5059001;28;20052;-35
2023/12/26 06:52:53;;;;;;;6.35;1.30;;;9.40;99.90;;;;;;5059650;28;20537;-35
2023/12/26 06:55:18;;;;;;;6.90;1.25;;;9.40;99.90;;;;;;5059912;28;20159;-36
2023/12/26 06:57:44;;;;;;;8.63;1.80;;;9.40;99.90;;;;;;5059105;28;20021;-35
2023/12/26 07:00:10;;;;;;;4.43;1.00;;;9.30;99.90;;;;;;5057870;28;20463;-35
2023/12/26 07:02:36;;;;;;;5.97;0.98;;;9.30;99.90;;;;;;5059034;28;20500;-37
2023/12/26 07:05:02;;;;;;;6.80;1.40;;;9.30;99.90;;;;;;5059209;28;20031;-35
2023/12/26 07:07:27;;;;;;;11.32;1.20;;;9.30;99.90;;;;;;5060451;28;20025;-36
2023/12/26 07:09:53;;;;;;;3.88;1.35;;;9.30;99.90;;;;;;5059242;28;20915;-37
2023/12/26 07:12:18;;;;;;;8.50;1.40;;;9.30;99.90;;;;;;5058853;28;20041;-36
2023/12/26 07:14:44;;;;;;;3.75;1.08;;;9.20;99.90;;;;;;5059165;28;20039;-36
2023/12/26 07:17:10;;;;;;;5.15;1.10;;;9.20;99.90;;;;;;5059478;28;20551;-36
2023/12/26 07:19:35;;;;;;;4.40;1.05;;;9.20;99.90;;;;;;5059015;28;20070;-36
2023/12/26 07:22:01;;;;;;;4.63;1.35;;;9.20;99.90;;;;;;5058848;28;20575;-36
2023/12/26 07:24:27;;;;;;;2.95;1.00;;;9.20;99.90;;;;;;5058648;28;20012;-36
2023/12/26 07:26:52;;;;;;;5.35;1.67;;;9.20;99.90;;;;;;5056300;28;20032;-36
2023/12/26 07:29:18;;;;;;;3.50;1.13;;;9.10;99.90;;;;;;5060202;28;20028;-35
2023/12/26 07:31:44;;;;;;;5.88;0.93;;;9.10;99.90;;;;;;5058086;28;20051;-37
2023/12/26 07:34:10;;;;;;;4.85;1.10;;;9.10;99.90;;;;;;5059147;28;20021;-35
2023/12/26 07:36:35;;;;;;;4.47;1.40;;;9.10;99.90;;;;;;5058890;28;20024;-36
2023/12/26 07:39:01;;;;;;;3.80;0.93;;;9.00;99.90;;;;;;5059809;28;20024;-35
2023/12/26 07:41:27;;;;;;;4.80;1.40;;;9.00;99.90;;;;;;5058772;28;20664;-37
2023/12/26 07:43:59;;;;;;;7.68;1.67;;;9.00;99.90;;;;;;5058562;28;20032;-35
2023/12/26 07:46:25;;;;;;;6.55;1.40;;;9.00;99.90;;;;;;5060297;28;20097;-36
2023/12/26 07:48:50;;;;;;;7.40;1.20;;;9.00;99.90;;;;;;5062009;28;20037;-35
2023/12/26 07:51:16;;;;;;;6.07;1.42;;;8.90;99.90;;;;;;5057674;28;20043;-36
2023/12/26 07:53:42;;;;;;;5.60;1.35;;;9.00;99.90;;;;;;5056213;28;20029;-36
2023/12/26 07:56:07;;;;;;;7.50;1.25;;;8.90;99.90;;;;;;5058349;28;20562;-37
2023/12/26 07:58:34;;;;;;;4.13;1.30;;;8.90;99.90;;;;;;5057975;28;20127;-36
2023/12/26 08:01:01;;;;;;;6.00;1.50;;;8.90;99.90;;;;;;5055866;28;20028;-37
2023/12/26 08:03:27;;;;;;;6.10;2.10;;;8.90;99.90;;;;;;5060714;28;20031;-36
2023/12/26 08:05:52;;;;;;;5.70;1.38;;;8.90;99.90;;;;;;5058011;28;20029;-36
2023/12/26 08:08:18;;;;;;;5.95;1.27;;;9.00;99.90;;;;;;5057017;28;20434;-37
2023/12/26 08:10:47;;;;;;;6.85;1.70;;;9.00;99.90;;;;;;5058439;28;20033;-36
2023/12/26 08:13:13;;;;;;;7.70;1.83;;;9.00;99.90;;;;;;5057134;28;20184;-36
2023/12/26 08:15:39;;;;;;;3.42;1.15;;;9.10;99.90;;;;;;5055779;28;20021;-36
2023/12/26 08:18:05;;;;;;;5.55;1.20;;;9.10;99.90;;;;;;5056063;28;20534;-36
2023/12/26 08:20:37;;;;;;;4.40;1.00;;;9.10;99.90;;;;;;5055305;28;20028;-36
2023/12/26 08:23:08;;;;;;;4.72;1.38;;;9.10;99.90;;;;;;5062006;28;20030;-36
2023/12/26 08:25:34;;;;;;;4.77;1.30;;;9.20;99.90;;;;;;5056034;28;20812;-36
2023/12/26 08:28:01;;;;;;;7.95;1.40;;;9.20;99.90;;;;;;5056942;28;20021;-36
2023/12/26 08:30:26;;;;;;;3.13;0.98;;;9.20;99.90;;;;;;5055552;28;20040;-36
2023/12/26 08:32:52;;;;;;;5.28;1.10;;;9.20;99.90;;;;;;5058221;28;20047;-36
2023/12/26 08:35:17;;;;;;;3.90;1.13;;;9.30;99.90;;;;;;5067746;28;20143;-37
2023/12/26 08:37:43;;;;;;;7.05;1.15;;;9.30;99.90;;;;;;5061485;28;20024;-36
2023/12/26 08:40:09;;;;;;;6.32;1.67;;;9.30;99.90;;;;;;5061146;28;20028;-37
2023/12/26 08:42:34;;;;;;;4.85;1.20;;;9.30;99.90;;;;;;5060838;28;20573;-37
2023/12/26 08:45:00;;;;;;;6.32;1.25;;;9.30;99.90;;;;;;5061501;28;20024;-36
2023/12/26 08:47:26;;;;;;;6.75;1.67;;;9.20;99.90;;;;;;5060585;28;20028;-37
2023/12/26 08:49:51;;;;;;;5.95;1.40;;;9.20;99.90;;;;;;5060409;28;20480;-37
2023/12/26 08:52:18;;;;;;;4.35;1.13;;;9.20;99.90;;;;;;5061296;28;20044;-37
2023/12/26 08:54:43;;;;;;;5.35;1.30;;;9.20;99.90;;;;;;5060273;28;20052;-36
2023/12/26 08:57:09;;;;;;;5.30;1.05;;;9.20;99.90;;;;;;5059822;28;20032;-36
2023/12/26 08:59:35;;;;;;;5.28;1.10;;;9.20;99.90;;;;;;5058027;28;20828;-36
2023/12/26 09:02:00;;;;;;;5.15;1.15;;;9.20;99.90;;;;;;5060924;28;20118;-36
2023/12/26 09:04:26;;;;;;;2.92;1.13;;;9.20;99.90;;;;;;5059888;28;20466;-36
2023/12/26 09:06:55;;;;;;;7.22;1.17;;;9.30;99.90;;;;;;5061915;28;20044;-36
2023/12/26 09:09:21;;;;;;;4.38;1.05;;;9.30;99.90;;;;;;5056575;28;20025;-37
2023/12/26 09:11:46;;;;;;;4.10;1.30;;;9.30;99.90;;;;;;5060579;28;20646;-37
2023/12/26 09:14:15;;;;;;;5.65;1.35;;;9.30;99.90;;;;;;5059708;28;20085;-37
2023/12/26 09:16:41;;;;;;;5.47;1.50;;;9.30;99.90;;;;;;5059018;28;20029;-37
2023/12/26 09:19:07;;;;;;;4.30;1.40;;;9.30;99.90;;;;;;5057569;28;20028;-37
2023/12/26 09:21:33;;;;;;;5.75;1.65;;;9.30;99.90;;;;;;5060227;28;20032;-36
2023/12/26 09:23:58;;;;;;;8.60;1.80;;;9.40;99.90;;;;;;5058690;28;20025;-36
2023/12/26 09:26:24;;;;;;;5.22;1.40;;;9.30;99.90;;;;;;5060414;28;20527;-36
2023/12/26 09:28:50;;;;;;;5.55;1.30;;;9.30;99.90;;;;;;5060437;28;20025;-39
2023/12/26 09:31:19;;;;;;;7.35;1.50;;;9.30;99.90;;;;;;5059093;28;20036;-39
2023/12/26 09:33:45;;;;;;;7.57;1.58;;;9.30;99.90;;;;;;5059265;28;20044;-37
2023/12/26 09:36:10;;;;;;;3.80;1.40;;;9.30;99.90;;;;;;5060510;28;20035;-37
2023/12/26 09:38:38;;;;;;;5.63;1.40;;;9.40;99.90;;;;;;5058254;28;20400;-37
2023/12/26 09:41:05;;;;;;;6.53;2.10;;;9.40;99.90;;;;;;5058620;28;20064;-38
2023/12/26 09:43:31;;;;;;;6.43;1.55;;;9.40;99.90;;;;;;5054350;28;20792;-38
2023/12/26 09:45:56;;;;;;;6.75;2.42;;;9.40;99.90;;;;;;5056875;28;20111;-38
2023/12/26 09:48:23;;;;;;;7.28;1.45;;;9.40;99.90;;;;;;5057190;28;20025;-38
2023/12/26 09:50:53;;;;;;;8.30;1.67;;;9.50;99.90;;;;;;5059783;28;20127;-37
2023/12/26 09:53:22;;;;;;;5.18;1.60;;;9.50;99.90;;;;;;5059552;28;20039;-39
2023/12/26 09:55:49;;;;;;;9.07;1.55;;;9.60;99.90;;;;;;5060962;28;20040;-38
2023/12/26 09:58:16;;;;;;;7.65;1.65;;;9.60;99.90;;;;;;5061520;28;20020;-38
2023/12/26 10:00:43;;;;;;;5.35;1.50;;;9.60;99.90;;;;;;5056760;28;20469;-38
2023/12/26 10:03:09;;;;;;;10.30;1.90;;;9.70;99.90;;;;;;5058060;28;20025;-38
2023/12/26 10:05:34;;;;;;;4.35;1.50;;;9.70;99.90;;;;;;5060951;28;20647;-37
2023/12/26 10:08:00;;;;;;;4.40;1.50;;;9.70;99.90;;;;;;5060665;28;20712;-37
2023/12/26 10:10:26;;;;;;;8.98;1.88;;;9.70;99.90;;;;;;5061101;28;20646;-37
2023/12/26 10:12:53;;;;;;;9.05;1.95;;;9.70;99.90;;;;;;5060032;28;20827;-37
2023/12/26 10:15:20;;;;;;;8.77;2.15;;;9.70;99.90;;;;;;5060386;28;20035;-38
2023/12/26 10:17:46;;;;;;;9.48;2.20;;;9.70;99.90;;;;;;5061297;28;20024;-38
2023/12/26 10:20:18;;;;;;;7.88;1.55;;;9.80;99.90;;;;;;5060492;28;20017;-37
2023/12/26 10:22:44;;;;;;;8.07;1.80;;;9.80;99.90;;;;;;5059907;28;20105;-39
2023/12/26 10:25:11;;;;;;;9.57;1.95;;;9.80;99.90;;;;;;5059700;28;20024;-37
2023/12/26 10:27:38;;;;;;;7.35;1.70;;;9.80;99.90;;;;;;5059468;28;20097;-38
2023/12/26 10:30:04;;;;;;;6.88;2.78;;;9.80;99.90;;;;;;5060077;28;20085;-37
2023/12/26 10:32:31;;;;;;;11.32;2.85;;;9.80;99.90;;;;;;5059662;28;20417;-37
2023/12/26 10:34:56;;;;;;;7.72;1.90;;;9.90;99.90;;;;;;5059936;28;20052;-37
2023/12/26 10:37:22;;;;;;;7.82;2.08;;;9.90;99.90;;;;;;5060908;28;20078;-37
2023/12/26 10:39:52;;;;;;;7.88;2.17;;;9.90;99.90;;;;;;5060278;28;20034;-37
2023/12/26 10:42:18;;;;;;;9.82;3.15;;;9.90;99.90;;;;;;5059727;28;20082;-38
2023/12/26 10:45:05;;;;;;;7.97;1.92;;;9.90;99.90;;;;;;5060871;28;20020;-37
2023/12/26 10:47:34;;;;;;;10.82;2.03;;;9.90;99.90;;;;;;5060983;28;20029;-45
2023/12/26 10:50:01;;;;;;;6.63;1.50;;;10.00;99.90;;;;;;5059278;28;20032;-37
2023/12/26 10:52:28;;;;;;;6.88;1.80;;;10.00;99.90;;;;;;5059276;28;20190;-37
2023/12/26 10:54:59;;;;;;;9.07;1.90;;;10.10;99.90;;;;;;5059697;28;20127;-36
2023/12/26 10:57:25;;;;;;;9.50;1.98;;;10.10;99.90;;;;;;5058826;28;20107;-37
2023/12/26 13:52:01;;;;;;;4.90;1.60;;;10.40;99.90;;;;;;5056127;28;20127;-38
2023/12/26 13:54:27;;;;;;;7.25;1.65;;;10.40;99.90;;;;;;5060074;28;20044;-37
2023/12/26 13:56:53;;;;;;;4.72;1.35;;;10.40;99.90;;;;;;5060509;28;20534;-37
2023/12/26 13:59:20;;;;;;;4.75;1.00;;;10.40;99.90;;;;;;5058907;28;20025;-39
2023/12/26 14:01:46;;;;;;;4.55;1.00;;;10.40;99.90;;;;;;5060624;28;20773;-37
2023/12/26 14:04:11;;;;;;;6.10;1.20;;;10.40;99.90;;;;;;5059033;28;20136;-37
2023/12/26 14:06:37;;;;;;;5.22;1.17;;;10.40;99.90;;;;;;5060150;28;20028;-38
2023/12/26 14:09:03;;;;;;;5.30;1.25;;;10.40;99.90;;;;;;5058129;28;20055;-38
2023/12/26 14:11:29;;;;;;;5.78;0.98;;;10.40;99.90;;;;;;5059644;28;20101;-37
2023/12/26 14:13:54;;;;;;;3.30;1.33;;;10.40;99.90;;;;;;5059275;28;20012;-37
2023/12/26 14:16:22;;;;;;;2.25;0.88;;;10.40;99.90;;;;;;5059555;28;20816;-39
2023/12/26 14:18:48;;;;;;;3.78;1.20;;;10.40;99.90;;;;;;5060032;28;20028;-37
2023/12/26 14:21:14;;;;;;;2.25;0.95;;;10.40;99.90;;;;;;5057052;28;20552;-38
2023/12/26 14:23:39;;;;;;;4.75;1.30;;;10.40;99.90;;;;;;5058650;28;20425;-38
2023/12/26 14:26:05;;;;;;;3.30;0.90;;;10.40;99.90;;;;;;5059404;28;20440;-37
2023/12/26 14:28:31;;;;;;;3.28;1.20;;;10.40;99.90;;;;;;5060015;28;20045;-37
2023/12/26 14:30:56;;;;;;;3.17;1.00;;;10.30;99.90;;;;;;5059500;28;20032;-38
2023/12/26 14:33:22;;;;;;;3.40;1.10;;;10.30;99.90;;;;;;5058876;28;20082;-38
2023/12/26 14:35:49;;;;;;;3.00;1.17;;;10.30;99.90;;;;;;5059275;28;20031;-38
2023/12/26 14:38:15;;;;;;;3.47;0.98;;;10.30;99.90;;;;;;5059155;28;20036;-37
2023/12/26 14:40:41;;;;;;;3.72;1.15;;;10.30;99.90;;;;;;5058265;28;20024;-38
2023/12/26 14:43:07;;;;;;;2.90;1.10;;;10.30;99.90;;;;;;5059698;28;20025;-38
2023/12/26 14:45:33;;;;;;;4.82;1.20;;;10.30;99.90;;;;;;5060013;28;20066;-37
2023/12/26 14:47:58;;;;;;;4.35;1.40;;;10.30;99.90;;;;;;5059887;28;20593;-37
2023/12/26 14:50:24;;;;;;;3.10;1.37;;;10.30;99.90;;;;;;5056989;28;20096;-37
2023/12/26 14:52:50;;;;;;;3.90;1.10;;;10.30;99.90;;;;;;5060600;28;20470;-38
2023/12/26 14:55:15;;;;;;;5.22;1.20;;;10.30;99.90;;;;;;5058661;28;20897;-37
2023/12/26 14:57:41;;;;;;;3.83;1.30;;;10.30;99.90;;;;;;5059450;28;20467;-37
2023/12/26 15:00:07;;;;;;;3.42;1.77;;;10.30;99.90;;;;;;5059030;28;20025;-38
2023/12/26 15:02:33;;;;;;;5.78;1.20;;;10.30;99.90;;;;;;5056745;28;20507;-37
2023/12/26 15:04:59;;;;;;;3.50;1.40;;;10.30;99.90;;;;;;5059815;28;20021;-38
2023/12/26 15:07:25;;;;;;;5.70;1.27;;;10.30;99.90;;;;;;5058553;28;20020;-36
2023/12/26 15:09:50;;;;;;;6.55;1.73;;;10.30;99.90;;;;;;5056286;28;20121;-36
2023/12/26 15:12:16;;;;;;;3.80;1.40;;;10.20;99.90;;;;;;5055596;28;20070;-37
2023/12/26 15:14:42;;;;;;;5.63;1.85;;;10.20;99.90;;;;;;5059603;28;20468;-37
2023/12/26 15:17:07;;;;;;;3.13;1.30;;;10.20;99.90;;;;;;5058647;28;20468;-37
2023/12/26 15:19:33;;;;;;;1.90;1.00;;;10.20;99.90;;;;;;5059930;28;20023;-37
2023/12/26 15:21:58;;;;;;;3.75;1.20;;;10.20;99.90;;;;;;5058985;28;20510;-37
2023/12/26 15:24:24;;;;;;;4.30;1.15;;;10.20;99.90;;;;;;5058711;28;20020;-37
2023/12/26 15:26:50;;;;;;;3.53;1.30;;;10.20;99.90;;;;;;5059096;28;20025;-37
2023/12/26 15:29:16;;;;;;;4.80;1.10;;;10.20;99.90;;;;;;5059598;28;20025;-37
2023/12/26 15:31:42;;;;;;;2.83;1.02;;;10.20;99.90;;;;;;5058571;28;20120;-36
2023/12/26 15:34:08;;;;;;;4.57;1.58;;;10.20;99.90;;;;;;5059091;28;20111;-37
2023/12/26 15:36:33;;;;;;;5.03;1.35;;;10.20;99.90;;;;;;5059524;28;20565;-37